sensor_id;sensor_type;location;lat;lon;timestamp;P1;durP1;ratioP1;P2;durP2;ratioP2
77984;SDS011;67177;47.240;-1.546;2023-08-24T00:01:36;2.67;;;0.80;;
77984;SDS011;67177;47.240;-1.546;2023-08-24T00:04:02;2.10;;;0.70;;
77984;SDS011;67177;47.240;-1.546;2023-08-24T00:06:27;2.65;;;0.77;;
77984;SDS011;67177;47.240;-1.546;2023-08-24T00:08:53;2.80;;;0.80;;
77984;SDS011;67177;47.240;-1.546;2023-08-24T00:11:19;2.00;;;0.60;;
77984;SDS011;67177;47.240;-1.546;2023-08-24T00:13:45;3.00;;;0.90;;
77984;SDS011;67177;47.240;-1.546;2023-08-24T00:16:16;2.25;;;0.70;;
77984;SDS011;67177;47.240;-1.546;2023-08-24T00:18:42;2.00;;;0.70;;
77984;SDS011;67177;47.240;-1.546;2023-08-24T00:21:08;2.25;;;0.70;;
77984;SDS011;67177;47.240;-1.546;2023-08-24T00:23:33;2.97;;;0.93;;
77984;SDS011;67177;47.240;-1.546;2023-08-24T00:25:59;2.97;;;0.88;;
77984;SDS011;67177;47.240;-1.546;2023-08-24T00:28:25;2.33;;;0.70;;
77984;SDS011;67177;47.240;-1.546;2023-08-24T00:30:51;2.28;;;0.80;;
77984;SDS011;67177;47.240;-1.546;2023-08-24T00:33:17;2.25;;;0.70;;
77984;SDS011;67177;47.240;-1.546;2023-08-24T00:35:42;2.60;;;0.80;;
77984;SDS011;67177;47.240;-1.546;2023-08-24T00:38:08;2.78;;;0.80;;
77984;SDS011;67177;47.240;-1.546;2023-08-24T00:40:34;3.13;;;0.87;;
77984;SDS011;67177;47.240;-1.546;2023-08-24T00:43:00;3.08;;;1.10;;
77984;SDS011;67177;47.240;-1.546;2023-08-24T00:45:26;3.20;;;1.13;;
77984;SDS011;67177;47.240;-1.546;2023-08-24T00:47:51;3.40;;;1.20;;
77984;SDS011;67177;47.240;-1.546;2023-08-24T00:50:17;3.47;;;1.20;;
77984;SDS011;67177;47.240;-1.546;2023-08-24T00:52:44;3.50;;;1.30;;
77984;SDS011;67177;47.240;-1.546;2023-08-24T00:55:11;3.28;;;1.13;;
77984;SDS011;67177;47.240;-1.546;2023-08-24T00:57:39;3.78;;;1.30;;
77984;SDS011;67177;47.240;-1.546;2023-08-24T01:00:07;3.00;;;1.00;;
77984;SDS011;67177;47.240;-1.546;2023-08-24T01:02:39;3.10;;;1.00;;
77984;SDS011;67177;47.240;-1.546;2023-08-24T01:05:05;3.10;;;1.08;;
77984;SDS011;67177;47.240;-1.546;2023-08-24T01:07:35;3.10;;;1.00;;
77984;SDS011;67177;47.240;-1.546;2023-08-24T01:10:04;3.45;;;1.30;;
77984;SDS011;67177;47.240;-1.546;2023-08-24T01:17:44;3.67;;;1.20;;
77984;SDS011;67177;47.240;-1.546;2023-08-24T01:20:12;3.33;;;1.23;;
77984;SDS011;67177;47.240;-1.546;2023-08-24T01:23:41;3.60;;;1.27;;
77984;SDS011;67177;47.240;-1.546;2023-08-24T01:25:53;3.35;;;1.00;;
77984;SDS011;67177;47.240;-1.546;2023-08-24T01:28:37;3.97;;;1.10;;
77984;SDS011;67177;47.240;-1.546;2023-08-24T01:31:05;3.10;;;1.15;;
77984;SDS011;67177;47.240;-1.546;2023-08-24T01:33:31;3.22;;;1.15;;
77984;SDS011;67177;47.240;-1.546;2023-08-24T01:35:56;3.15;;;0.90;;
77984;SDS011;67177;47.240;-1.546;2023-08-24T01:38:22;3.63;;;1.20;;
77984;SDS011;67177;47.240;-1.546;2023-08-24T01:40:52;4.00;;;1.30;;
77984;SDS011;67177;47.240;-1.546;2023-08-24T01:43:25;3.33;;;1.20;;
77984;SDS011;67177;47.240;-1.546;2023-08-24T01:45:55;3.05;;;1.15;;
77984;SDS011;67177;47.240;-1.546;2023-08-24T01:48:22;3.13;;;1.10;;
77984;SDS011;67177;47.240;-1.546;2023-08-24T01:50:50;3.35;;;1.17;;
77984;SDS011;67177;47.240;-1.546;2023-08-24T01:53:16;3.40;;;1.00;;
77984;SDS011;67177;47.240;-1.546;2023-08-24T01:55:44;2.92;;;0.88;;
77984;SDS011;67177;47.240;-1.546;2023-08-24T01:58:10;3.13;;;1.10;;
77984;SDS011;67177;47.240;-1.546;2023-08-24T02:00:36;3.57;;;0.90;;
77984;SDS011;67177;47.240;-1.546;2023-08-24T02:03:02;4.57;;;1.10;;
77984;SDS011;67177;47.240;-1.546;2023-08-24T02:05:28;3.90;;;1.30;;
77984;SDS011;67177;47.240;-1.546;2023-08-24T02:07:54;4.00;;;1.50;;
77984;SDS011;67177;47.240;-1.546;2023-08-24T02:10:20;3.47;;;1.20;;
77984;SDS011;67177;47.240;-1.546;2023-08-24T02:12:46;3.20;;;1.10;;
77984;SDS011;67177;47.240;-1.546;2023-08-24T02:15:11;3.05;;;1.00;;
77984;SDS011;67177;47.240;-1.546;2023-08-24T02:17:37;2.67;;;0.80;;
77984;SDS011;67177;47.240;-1.546;2023-08-24T02:20:03;2.75;;;0.82;;
77984;SDS011;67177;47.240;-1.546;2023-08-24T02:22:30;2.80;;;1.00;;
77984;SDS011;67177;47.240;-1.546;2023-08-24T02:24:55;2.57;;;0.80;;
77984;SDS011;67177;47.240;-1.546;2023-08-24T02:27:21;2.45;;;0.70;;
77984;SDS011;67177;47.240;-1.546;2023-08-24T02:29:47;2.63;;;0.80;;
77984;SDS011;67177;47.240;-1.546;2023-08-24T02:32:13;2.83;;;0.90;;
77984;SDS011;67177;47.240;-1.546;2023-08-24T02:34:38;3.20;;;1.00;;
77984;SDS011;67177;47.240;-1.546;2023-08-24T02:37:04;2.37;;;0.87;;
77984;SDS011;67177;47.240;-1.546;2023-08-24T02:39:30;2.53;;;0.85;;
77984;SDS011;67177;47.240;-1.546;2023-08-24T02:41:55;2.93;;;0.90;;
77984;SDS011;67177;47.240;-1.546;2023-08-24T02:44:21;2.80;;;1.00;;
77984;SDS011;67177;47.240;-1.546;2023-08-24T02:46:48;3.27;;;1.10;;
77984;SDS011;67177;47.240;-1.546;2023-08-24T02:49:13;3.85;;;1.45;;
77984;SDS011;67177;47.240;-1.546;2023-08-24T02:51:39;3.57;;;1.30;;
77984;SDS011;67177;47.240;-1.546;2023-08-24T02:54:05;3.80;;;1.50;;
77984;SDS011;67177;47.240;-1.546;2023-08-24T02:56:31;3.67;;;1.30;;
77984;SDS011;67177;47.240;-1.546;2023-08-24T02:58:57;3.67;;;1.40;;
77984;SDS011;67177;47.240;-1.546;2023-08-24T03:01:22;3.57;;;1.20;;
77984;SDS011;67177;47.240;-1.546;2023-08-24T03:03:48;4.00;;;1.70;;
77984;SDS011;67177;47.240;-1.546;2023-08-24T03:06:14;4.05;;;1.80;;
77984;SDS011;67177;47.240;-1.546;2023-08-24T03:08:40;3.90;;;1.45;;
77984;SDS011;67177;47.240;-1.546;2023-08-24T03:11:05;4.23;;;1.40;;
77984;SDS011;67177;47.240;-1.546;2023-08-24T03:13:31;3.80;;;1.50;;
77984;SDS011;67177;47.240;-1.546;2023-08-24T03:16:03;3.47;;;1.35;;
77984;SDS011;67177;47.240;-1.546;2023-08-24T03:18:30;3.60;;;1.30;;
77984;SDS011;67177;47.240;-1.546;2023-08-24T03:20:56;3.60;;;1.20;;
77984;SDS011;67177;47.240;-1.546;2023-08-24T03:23:22;3.38;;;1.25;;
77984;SDS011;67177;47.240;-1.546;2023-08-24T03:25:47;3.20;;;1.10;;
77984;SDS011;67177;47.240;-1.546;2023-08-24T03:28:13;3.05;;;1.10;;
77984;SDS011;67177;47.240;-1.546;2023-08-24T03:30:40;3.70;;;1.30;;
77984;SDS011;67177;47.240;-1.546;2023-08-24T03:33:14;3.75;;;1.55;;
77984;SDS011;67177;47.240;-1.546;2023-08-24T03:35:40;5.07;;;1.67;;
77984;SDS011;67177;47.240;-1.546;2023-08-24T03:38:06;4.40;;;1.60;;
77984;SDS011;67177;47.240;-1.546;2023-08-24T03:40:31;3.90;;;1.52;;
77984;SDS011;67177;47.240;-1.546;2023-08-24T03:42:57;3.83;;;1.40;;
77984;SDS011;67177;47.240;-1.546;2023-08-24T03:45:23;4.57;;;1.80;;
77984;SDS011;67177;47.240;-1.546;2023-08-24T03:47:48;3.60;;;1.30;;
77984;SDS011;67177;47.240;-1.546;2023-08-24T03:50:15;3.80;;;1.50;;
77984;SDS011;67177;47.240;-1.546;2023-08-24T03:52:40;3.70;;;1.40;;
77984;SDS011;67177;47.240;-1.546;2023-08-24T03:55:06;3.60;;;1.30;;
77984;SDS011;67177;47.240;-1.546;2023-08-24T03:57:32;3.33;;;1.15;;
77984;SDS011;67177;47.240;-1.546;2023-08-24T03:59:58;3.80;;;1.10;;
77984;SDS011;67177;47.240;-1.546;2023-08-24T04:02:24;3.83;;;1.50;;
77984;SDS011;67177;47.240;-1.546;2023-08-24T04:04:50;3.25;;;1.05;;
77984;SDS011;67177;47.240;-1.546;2023-08-24T04:07:16;3.20;;;1.10;;
77984;SDS011;67177;47.240;-1.546;2023-08-24T04:09:42;3.30;;;1.13;;
77984;SDS011;67177;47.240;-1.546;2023-08-24T04:12:07;2.97;;;1.00;;
77984;SDS011;67177;47.240;-1.546;2023-08-24T04:14:33;3.42;;;1.00;;
77984;SDS011;67177;47.240;-1.546;2023-08-24T04:16:59;2.80;;;0.90;;
77984;SDS011;67177;47.240;-1.546;2023-08-24T04:19:24;3.13;;;1.00;;
77984;SDS011;67177;47.240;-1.546;2023-08-24T04:21:50;2.80;;;0.90;;
77984;SDS011;67177;47.240;-1.546;2023-08-24T04:24:16;2.53;;;0.80;;
77984;SDS011;67177;47.240;-1.546;2023-08-24T04:26:41;3.10;;;1.07;;
77984;SDS011;67177;47.240;-1.546;2023-08-24T04:29:07;3.08;;;1.10;;
77984;SDS011;67177;47.240;-1.546;2023-08-24T04:31:32;3.23;;;1.13;;
77984;SDS011;67177;47.240;-1.546;2023-08-24T04:33:59;3.60;;;1.20;;
77984;SDS011;67177;47.240;-1.546;2023-08-24T04:36:24;2.90;;;1.00;;
77984;SDS011;67177;47.240;-1.546;2023-08-24T04:38:50;3.05;;;1.00;;
77984;SDS011;67177;47.240;-1.546;2023-08-24T04:41:16;3.33;;;1.23;;
77984;SDS011;67177;47.240;-1.546;2023-08-24T04:43:41;3.78;;;1.50;;
77984;SDS011;67177;47.240;-1.546;2023-08-24T04:46:07;4.10;;;1.60;;
77984;SDS011;67177;47.240;-1.546;2023-08-24T04:48:33;4.20;;;1.50;;
77984;SDS011;67177;47.240;-1.546;2023-08-24T04:51:00;4.00;;;1.50;;
77984;SDS011;67177;47.240;-1.546;2023-08-24T04:53:26;4.28;;;1.50;;
77984;SDS011;67177;47.240;-1.546;2023-08-24T04:55:53;5.32;;;2.50;;
77984;SDS011;67177;47.240;-1.546;2023-08-24T04:58:18;5.00;;;2.75;;
77984;SDS011;67177;47.240;-1.546;2023-08-24T05:00:44;5.60;;;2.95;;
77984;SDS011;67177;47.240;-1.546;2023-08-24T05:03:10;5.30;;;2.70;;
77984;SDS011;67177;47.240;-1.546;2023-08-24T05:05:37;4.75;;;2.38;;
77984;SDS011;67177;47.240;-1.546;2023-08-24T05:08:03;4.95;;;2.35;;
77984;SDS011;67177;47.240;-1.546;2023-08-24T05:10:36;4.60;;;2.08;;
77984;SDS011;67177;47.240;-1.546;2023-08-24T05:13:02;4.10;;;1.73;;
77984;SDS011;67177;47.240;-1.546;2023-08-24T05:15:28;4.10;;;1.65;;
77984;SDS011;67177;47.240;-1.546;2023-08-24T05:17:54;3.87;;;1.60;;
77984;SDS011;67177;47.240;-1.546;2023-08-24T05:20:27;4.22;;;1.70;;
77984;SDS011;67177;47.240;-1.546;2023-08-24T05:22:53;5.97;;;2.17;;
77984;SDS011;67177;47.240;-1.546;2023-08-24T05:25:24;4.85;;;2.20;;
77984;SDS011;67177;47.240;-1.546;2023-08-24T05:27:50;5.03;;;2.10;;
77984;SDS011;67177;47.240;-1.546;2023-08-24T05:30:16;4.00;;;1.80;;
77984;SDS011;67177;47.240;-1.546;2023-08-24T05:32:41;3.87;;;1.50;;
77984;SDS011;67177;47.240;-1.546;2023-08-24T05:35:07;5.18;;;2.45;;
77984;SDS011;67177;47.240;-1.546;2023-08-24T05:37:34;6.17;;;3.03;;
77984;SDS011;67177;47.240;-1.546;2023-08-24T05:40:00;7.15;;;3.10;;
77984;SDS011;67177;47.240;-1.546;2023-08-24T05:42:27;5.30;;;2.80;;
77984;SDS011;67177;47.240;-1.546;2023-08-24T05:44:53;5.43;;;2.85;;
77984;SDS011;67177;47.240;-1.546;2023-08-24T05:47:19;6.13;;;3.20;;
77984;SDS011;67177;47.240;-1.546;2023-08-24T05:49:44;5.82;;;3.28;;
77984;SDS011;67177;47.240;-1.546;2023-08-24T05:52:10;6.10;;;3.10;;
77984;SDS011;67177;47.240;-1.546;2023-08-24T05:54:37;5.80;;;3.67;;
77984;SDS011;67177;47.240;-1.546;2023-08-24T05:57:03;6.78;;;3.78;;
77984;SDS011;67177;47.240;-1.546;2023-08-24T05:59:29;6.85;;;4.07;;
77984;SDS011;67177;47.240;-1.546;2023-08-24T06:01:55;6.63;;;3.83;;
77984;SDS011;67177;47.240;-1.546;2023-08-24T06:04:21;6.80;;;3.92;;
77984;SDS011;67177;47.240;-1.546;2023-08-24T06:06:47;6.80;;;3.70;;
77984;SDS011;67177;47.240;-1.546;2023-08-24T06:09:13;7.23;;;3.90;;
77984;SDS011;67177;47.240;-1.546;2023-08-24T06:11:40;6.55;;;3.60;;
77984;SDS011;67177;47.240;-1.546;2023-08-24T06:14:06;6.97;;;3.60;;
77984;SDS011;67177;47.240;-1.546;2023-08-24T06:16:32;6.70;;;3.40;;
77984;SDS011;67177;47.240;-1.546;2023-08-24T06:18:57;6.05;;;3.38;;
77984;SDS011;67177;47.240;-1.546;2023-08-24T06:21:23;6.73;;;3.23;;
77984;SDS011;67177;47.240;-1.546;2023-08-24T06:23:49;6.20;;;3.28;;
77984;SDS011;67177;47.240;-1.546;2023-08-24T06:26:14;8.80;;;3.87;;
77984;SDS011;67177;47.240;-1.546;2023-08-24T06:28:40;7.07;;;3.70;;
77984;SDS011;67177;47.240;-1.546;2023-08-24T06:31:06;7.72;;;4.00;;
77984;SDS011;67177;47.240;-1.546;2023-08-24T06:33:33;7.50;;;4.00;;
77984;SDS011;67177;47.240;-1.546;2023-08-24T06:35:59;7.13;;;3.35;;
77984;SDS011;67177;47.240;-1.546;2023-08-24T06:38:26;5.93;;;2.92;;
77984;SDS011;67177;47.240;-1.546;2023-08-24T06:40:52;5.80;;;3.20;;
77984;SDS011;67177;47.240;-1.546;2023-08-24T06:43:17;6.80;;;3.10;;
77984;SDS011;67177;47.240;-1.546;2023-08-24T06:45:46;5.90;;;2.92;;
77984;SDS011;67177;47.240;-1.546;2023-08-24T06:48:12;6.43;;;3.03;;
77984;SDS011;67177;47.240;-1.546;2023-08-24T06:50:37;5.00;;;2.63;;
77984;SDS011;67177;47.240;-1.546;2023-08-24T06:53:04;5.30;;;2.73;;
77984;SDS011;67177;47.240;-1.546;2023-08-24T06:55:29;5.20;;;2.50;;
77984;SDS011;67177;47.240;-1.546;2023-08-24T06:57:55;4.80;;;2.30;;
77984;SDS011;67177;47.240;-1.546;2023-08-24T07:00:21;5.15;;;2.33;;
77984;SDS011;67177;47.240;-1.546;2023-08-24T07:02:48;4.93;;;2.15;;
77984;SDS011;67177;47.240;-1.546;2023-08-24T07:05:14;5.18;;;2.47;;
77984;SDS011;67177;47.240;-1.546;2023-08-24T07:07:43;4.80;;;2.30;;
77984;SDS011;67177;47.240;-1.546;2023-08-24T07:10:10;5.90;;;2.60;;
77984;SDS011;67177;47.240;-1.546;2023-08-24T07:12:36;5.45;;;2.53;;
77984;SDS011;67177;47.240;-1.546;2023-08-24T07:15:03;5.93;;;3.03;;
77984;SDS011;67177;47.240;-1.546;2023-08-24T07:17:29;5.78;;;2.67;;
77984;SDS011;67177;47.240;-1.546;2023-08-24T07:19:54;6.63;;;3.08;;
77984;SDS011;67177;47.240;-1.546;2023-08-24T07:22:20;6.70;;;3.10;;
77984;SDS011;67177;47.240;-1.546;2023-08-24T07:24:45;5.85;;;2.88;;
77984;SDS011;67177;47.240;-1.546;2023-08-24T07:27:11;6.97;;;3.33;;
77984;SDS011;67177;47.240;-1.546;2023-08-24T07:29:37;6.50;;;3.60;;
77984;SDS011;67177;47.240;-1.546;2023-08-24T07:32:03;7.60;;;3.40;;
77984;SDS011;67177;47.240;-1.546;2023-08-24T07:34:28;6.05;;;3.08;;
77984;SDS011;67177;47.240;-1.546;2023-08-24T07:36:54;6.00;;;2.97;;
77984;SDS011;67177;47.240;-1.546;2023-08-24T07:39:20;5.20;;;2.80;;
77984;SDS011;67177;47.240;-1.546;2023-08-24T07:41:46;6.00;;;3.17;;
77984;SDS011;67177;47.240;-1.546;2023-08-24T07:44:11;6.28;;;2.75;;
77984;SDS011;67177;47.240;-1.546;2023-08-24T07:46:38;5.65;;;2.40;;
77984;SDS011;67177;47.240;-1.546;2023-08-24T07:49:05;5.57;;;2.80;;
77984;SDS011;67177;47.240;-1.546;2023-08-24T07:51:32;5.15;;;2.60;;
77984;SDS011;67177;47.240;-1.546;2023-08-24T07:53:58;5.55;;;2.70;;
77984;SDS011;67177;47.240;-1.546;2023-08-24T07:56:24;5.13;;;2.70;;
77984;SDS011;67177;47.240;-1.546;2023-08-24T07:58:50;4.90;;;2.50;;
77984;SDS011;67177;47.240;-1.546;2023-08-24T08:01:15;4.90;;;2.13;;
77984;SDS011;67177;47.240;-1.546;2023-08-24T08:03:41;5.25;;;2.30;;
77984;SDS011;67177;47.240;-1.546;2023-08-24T08:06:06;4.50;;;2.20;;
77984;SDS011;67177;47.240;-1.546;2023-08-24T08:08:32;4.38;;;2.08;;
77984;SDS011;67177;47.240;-1.546;2023-08-24T08:10:58;5.00;;;2.30;;
77984;SDS011;67177;47.240;-1.546;2023-08-24T08:13:26;5.05;;;2.22;;
77984;SDS011;67177;47.240;-1.546;2023-08-24T08:15:52;6.65;;;2.85;;
77984;SDS011;67177;47.240;-1.546;2023-08-24T08:18:18;5.57;;;2.72;;
77984;SDS011;67177;47.240;-1.546;2023-08-24T08:20:44;6.30;;;2.10;;
77984;SDS011;67177;47.240;-1.546;2023-08-24T08:23:10;5.07;;;2.40;;
77984;SDS011;67177;47.240;-1.546;2023-08-24T08:25:36;5.03;;;2.50;;
77984;SDS011;67177;47.240;-1.546;2023-08-24T08:28:01;5.78;;;2.85;;
77984;SDS011;67177;47.240;-1.546;2023-08-24T08:30:27;6.73;;;3.07;;
77984;SDS011;67177;47.240;-1.546;2023-08-24T08:32:53;7.30;;;3.08;;
77984;SDS011;67177;47.240;-1.546;2023-08-24T08:35:21;5.63;;;2.83;;
77984;SDS011;67177;47.240;-1.546;2023-08-24T08:37:47;5.73;;;2.60;;
77984;SDS011;67177;47.240;-1.546;2023-08-24T08:40:14;5.03;;;2.30;;
77984;SDS011;67177;47.240;-1.546;2023-08-24T08:42:40;5.07;;;2.30;;
77984;SDS011;67177;47.240;-1.546;2023-08-24T08:45:10;4.70;;;2.10;;
77984;SDS011;67177;47.240;-1.546;2023-08-24T08:47:36;4.27;;;1.90;;
77984;SDS011;67177;47.240;-1.546;2023-08-24T08:50:02;4.88;;;2.05;;
77984;SDS011;67177;47.240;-1.546;2023-08-24T08:52:31;5.68;;;2.60;;
77984;SDS011;67177;47.240;-1.546;2023-08-24T08:54:58;5.95;;;2.47;;
77984;SDS011;67177;47.240;-1.546;2023-08-24T08:57:25;5.55;;;2.40;;
77984;SDS011;67177;47.240;-1.546;2023-08-24T08:59:53;5.00;;;2.20;;
77984;SDS011;67177;47.240;-1.546;2023-08-24T09:02:20;4.70;;;2.30;;
77984;SDS011;67177;47.240;-1.546;2023-08-24T09:04:48;5.50;;;2.63;;
77984;SDS011;67177;47.240;-1.546;2023-08-24T09:07:16;5.20;;;2.70;;
77984;SDS011;67177;47.240;-1.546;2023-08-24T09:09:42;5.23;;;2.33;;
77984;SDS011;67177;47.240;-1.546;2023-08-24T09:12:08;5.32;;;2.50;;
77984;SDS011;67177;47.240;-1.546;2023-08-24T09:14:34;5.43;;;2.50;;
77984;SDS011;67177;47.240;-1.546;2023-08-24T09:17:00;5.28;;;2.67;;
77984;SDS011;67177;47.240;-1.546;2023-08-24T09:19:29;5.70;;;2.53;;
77984;SDS011;67177;47.240;-1.546;2023-08-24T09:21:56;5.70;;;2.83;;
77984;SDS011;67177;47.240;-1.546;2023-08-24T09:24:32;8.18;;;3.60;;
77984;SDS011;67177;47.240;-1.546;2023-08-24T09:27:05;7.47;;;3.90;;
77984;SDS011;67177;47.240;-1.546;2023-08-24T09:29:46;7.32;;;3.88;;
77984;SDS011;67177;47.240;-1.546;2023-08-24T09:32:23;7.63;;;3.80;;
77984;SDS011;67177;47.240;-1.546;2023-08-24T09:34:49;6.68;;;3.40;;
77984;SDS011;67177;47.240;-1.546;2023-08-24T09:37:15;5.85;;;3.00;;
77984;SDS011;67177;47.240;-1.546;2023-08-24T09:39:41;5.90;;;3.10;;
77984;SDS011;67177;47.240;-1.546;2023-08-24T09:42:07;6.72;;;3.20;;
77984;SDS011;67177;47.240;-1.546;2023-08-24T09:44:33;5.53;;;2.95;;
77984;SDS011;67177;47.240;-1.546;2023-08-24T09:46:58;6.90;;;2.97;;
77984;SDS011;67177;47.240;-1.546;2023-08-24T09:49:24;5.68;;;3.13;;
77984;SDS011;67177;47.240;-1.546;2023-08-24T09:51:55;5.23;;;2.70;;
77984;SDS011;67177;47.240;-1.546;2023-08-24T09:54:27;6.00;;;2.88;;
77984;SDS011;67177;47.240;-1.546;2023-08-24T09:56:55;6.63;;;3.50;;
77984;SDS011;67177;47.240;-1.546;2023-08-24T09:59:23;6.47;;;3.40;;
77984;SDS011;67177;47.240;-1.546;2023-08-24T10:01:52;7.00;;;3.50;;
77984;SDS011;67177;47.240;-1.546;2023-08-24T10:04:23;6.10;;;3.30;;
77984;SDS011;67177;47.240;-1.546;2023-08-24T10:06:51;6.40;;;3.58;;
77984;SDS011;67177;47.240;-1.546;2023-08-24T10:09:25;6.32;;;3.63;;
77984;SDS011;67177;47.240;-1.546;2023-08-24T10:12:00;7.00;;;3.75;;
77984;SDS011;67177;47.240;-1.546;2023-08-24T10:14:29;7.55;;;3.55;;
77984;SDS011;67177;47.240;-1.546;2023-08-24T10:17:00;6.53;;;3.37;;
77984;SDS011;67177;47.240;-1.546;2023-08-24T10:19:26;6.03;;;3.30;;
77984;SDS011;67177;47.240;-1.546;2023-08-24T10:21:54;7.10;;;3.30;;
77984;SDS011;67177;47.240;-1.546;2023-08-24T10:24:22;6.03;;;2.92;;
77984;SDS011;67177;47.240;-1.546;2023-08-24T10:26:48;5.00;;;2.70;;
77984;SDS011;67177;47.240;-1.546;2023-08-24T10:29:16;5.30;;;3.03;;
77984;SDS011;67177;47.240;-1.546;2023-08-24T10:31:42;6.68;;;3.20;;
77984;SDS011;67177;47.240;-1.546;2023-08-24T10:34:09;5.85;;;3.38;;
77984;SDS011;67177;47.240;-1.546;2023-08-24T10:36:37;7.32;;;3.70;;
77984;SDS011;67177;47.240;-1.546;2023-08-24T10:39:06;6.45;;;3.38;;
77984;SDS011;67177;47.240;-1.546;2023-08-24T10:41:51;5.17;;;2.80;;
77984;SDS011;67177;47.240;-1.546;2023-08-24T10:44:24;5.93;;;3.50;;
77984;SDS011;67177;47.240;-1.546;2023-08-24T10:47:13;6.25;;;3.40;;
77984;SDS011;67177;47.240;-1.546;2023-08-24T10:52:23;6.13;;;3.27;;
77984;SDS011;67177;47.240;-1.546;2023-08-24T10:54:55;5.95;;;3.35;;
77984;SDS011;67177;47.240;-1.546;2023-08-24T10:57:25;6.40;;;2.90;;
77984;SDS011;67177;47.240;-1.546;2023-08-24T11:00:10;5.60;;;2.90;;
77984;SDS011;67177;47.240;-1.546;2023-08-24T11:02:47;5.43;;;2.63;;
77984;SDS011;67177;47.240;-1.546;2023-08-24T11:05:29;5.00;;;2.50;;
77984;SDS011;67177;47.240;-1.546;2023-08-24T11:07:59;5.13;;;2.45;;
77984;SDS011;67177;47.240;-1.546;2023-08-24T11:13:07;5.00;;;2.58;;
77984;SDS011;67177;47.240;-1.546;2023-08-24T11:15:37;5.47;;;2.30;;
77984;SDS011;67177;47.240;-1.546;2023-08-24T11:18:22;5.35;;;2.40;;
77984;SDS011;67177;47.240;-1.546;2023-08-24T11:21:06;5.00;;;2.35;;
77984;SDS011;67177;47.240;-1.546;2023-08-24T11:23:32;4.82;;;2.30;;
77984;SDS011;67177;47.240;-1.546;2023-08-24T11:26:00;4.50;;;2.25;;
77984;SDS011;67177;47.240;-1.546;2023-08-24T11:28:27;4.23;;;1.80;;
77984;SDS011;67177;47.240;-1.546;2023-08-24T11:30:54;4.15;;;1.73;;
77984;SDS011;67177;47.240;-1.546;2023-08-24T11:33:30;4.20;;;1.77;;
77984;SDS011;67177;47.240;-1.546;2023-08-24T11:36:00;3.85;;;1.50;;
77984;SDS011;67177;47.240;-1.546;2023-08-24T11:38:41;3.90;;;1.50;;
77984;SDS011;67177;47.240;-1.546;2023-08-24T11:41:13;3.23;;;1.10;;
77984;SDS011;67177;47.240;-1.546;2023-08-24T11:43:40;3.95;;;1.52;;
77984;SDS011;67177;47.240;-1.546;2023-08-24T11:46:07;3.80;;;1.40;;
77984;SDS011;67177;47.240;-1.546;2023-08-24T11:48:32;4.35;;;1.50;;
77984;SDS011;67177;47.240;-1.546;2023-08-24T11:50:58;3.80;;;1.35;;
77984;SDS011;67177;47.240;-1.546;2023-08-24T11:53:24;3.45;;;1.30;;
77984;SDS011;67177;47.240;-1.546;2023-08-24T11:55:54;3.60;;;1.40;;
77984;SDS011;67177;47.240;-1.546;2023-08-24T11:58:20;3.80;;;1.17;;
77984;SDS011;67177;47.240;-1.546;2023-08-24T12:00:46;3.20;;;1.08;;
77984;SDS011;67177;47.240;-1.546;2023-08-24T12:03:12;3.17;;;1.10;;
77984;SDS011;67177;47.240;-1.546;2023-08-24T12:05:38;3.40;;;1.10;;
77984;SDS011;67177;47.240;-1.546;2023-08-24T12:08:04;3.40;;;1.00;;
77984;SDS011;67177;47.240;-1.546;2023-08-24T12:10:31;3.42;;;1.10;;
77984;SDS011;67177;47.240;-1.546;2023-08-24T12:13:03;3.30;;;1.10;;
77984;SDS011;67177;47.240;-1.546;2023-08-24T12:15:35;3.75;;;1.20;;
77984;SDS011;67177;47.240;-1.546;2023-08-24T12:18:11;3.60;;;1.23;;
77984;SDS011;67177;47.240;-1.546;2023-08-24T12:20:39;3.30;;;1.10;;
77984;SDS011;67177;47.240;-1.546;2023-08-24T12:23:06;3.45;;;1.10;;
77984;SDS011;67177;47.240;-1.546;2023-08-24T12:25:36;3.13;;;1.02;;
77984;SDS011;67177;47.240;-1.546;2023-08-24T12:28:14;3.30;;;1.00;;
77984;SDS011;67177;47.240;-1.546;2023-08-24T12:30:51;2.97;;;0.97;;
77984;SDS011;67177;47.240;-1.546;2023-08-24T12:33:21;3.03;;;1.00;;
77984;SDS011;67177;47.240;-1.546;2023-08-24T12:35:48;3.00;;;1.02;;
77984;SDS011;67177;47.240;-1.546;2023-08-24T12:38:14;3.95;;;1.30;;
77984;SDS011;67177;47.240;-1.546;2023-08-24T12:40:39;3.40;;;1.20;;
77984;SDS011;67177;47.240;-1.546;2023-08-24T12:43:05;3.53;;;1.20;;
77984;SDS011;67177;47.240;-1.546;2023-08-24T12:45:31;2.73;;;1.00;;
77984;SDS011;67177;47.240;-1.546;2023-08-24T12:47:56;3.78;;;1.30;;
77984;SDS011;67177;47.240;-1.546;2023-08-24T12:50:22;3.63;;;1.20;;
77984;SDS011;67177;47.240;-1.546;2023-08-24T12:52:48;4.30;;;1.30;;
77984;SDS011;67177;47.240;-1.546;2023-08-24T12:55:14;3.00;;;1.10;;
77984;SDS011;67177;47.240;-1.546;2023-08-24T12:57:40;3.50;;;1.10;;
77984;SDS011;67177;47.240;-1.546;2023-08-24T13:00:06;3.17;;;0.90;;
77984;SDS011;67177;47.240;-1.546;2023-08-24T13:02:33;2.80;;;0.90;;
77984;SDS011;67177;47.240;-1.546;2023-08-24T13:04:59;4.15;;;1.20;;
77984;SDS011;67177;47.240;-1.546;2023-08-24T13:07:29;3.67;;;1.27;;
77984;SDS011;67177;47.240;-1.546;2023-08-24T13:09:54;3.28;;;1.10;;
77984;SDS011;67177;47.240;-1.546;2023-08-24T13:12:20;3.07;;;1.07;;
77984;SDS011;67177;47.240;-1.546;2023-08-24T13:14:46;3.00;;;1.00;;
77984;SDS011;67177;47.240;-1.546;2023-08-24T13:17:12;3.13;;;1.10;;
77984;SDS011;67177;47.240;-1.546;2023-08-24T13:19:38;2.70;;;1.00;;
77984;SDS011;67177;47.240;-1.546;2023-08-24T13:22:03;3.30;;;1.00;;
77984;SDS011;67177;47.240;-1.546;2023-08-24T13:24:29;3.60;;;1.00;;
77984;SDS011;67177;47.240;-1.546;2023-08-24T13:26:55;3.17;;;0.98;;
77984;SDS011;67177;47.240;-1.546;2023-08-24T13:29:21;3.13;;;1.00;;
77984;SDS011;67177;47.240;-1.546;2023-08-24T13:31:46;3.35;;;1.20;;
77984;SDS011;67177;47.240;-1.546;2023-08-24T13:34:12;3.50;;;1.13;;
77984;SDS011;67177;47.240;-1.546;2023-08-24T13:36:38;3.50;;;1.30;;
77984;SDS011;67177;47.240;-1.546;2023-08-24T13:39:04;3.60;;;1.30;;
77984;SDS011;67177;47.240;-1.546;2023-08-24T13:41:29;3.42;;;1.25;;
77984;SDS011;67177;47.240;-1.546;2023-08-24T13:43:55;4.20;;;1.43;;
77984;SDS011;67177;47.240;-1.546;2023-08-24T13:46:21;3.88;;;1.40;;
77984;SDS011;67177;47.240;-1.546;2023-08-24T13:48:47;4.30;;;1.48;;
77984;SDS011;67177;47.240;-1.546;2023-08-24T13:51:13;3.58;;;1.30;;
77984;SDS011;67177;47.240;-1.546;2023-08-24T13:53:38;3.87;;;1.40;;
77984;SDS011;67177;47.240;-1.546;2023-08-24T13:56:04;3.90;;;1.50;;
77984;SDS011;67177;47.240;-1.546;2023-08-24T13:58:30;4.82;;;1.40;;
77984;SDS011;67177;47.240;-1.546;2023-08-24T14:00:57;3.10;;;1.10;;
77984;SDS011;67177;47.240;-1.546;2023-08-24T14:03:23;3.90;;;1.17;;
77984;SDS011;67177;47.240;-1.546;2023-08-24T14:05:49;3.35;;;1.20;;
77984;SDS011;67177;47.240;-1.546;2023-08-24T14:08:17;3.30;;;1.25;;
77984;SDS011;67177;47.240;-1.546;2023-08-24T14:10:43;3.65;;;1.40;;
77984;SDS011;67177;47.240;-1.546;2023-08-24T14:13:08;3.80;;;1.40;;
77984;SDS011;67177;47.240;-1.546;2023-08-24T14:15:34;3.42;;;1.33;;
77984;SDS011;67177;47.240;-1.546;2023-08-24T14:18:00;3.20;;;1.10;;
77984;SDS011;67177;47.240;-1.546;2023-08-24T14:20:25;3.70;;;1.40;;
77984;SDS011;67177;47.240;-1.546;2023-08-24T14:22:52;3.90;;;1.30;;
77984;SDS011;67177;47.240;-1.546;2023-08-24T14:25:18;3.50;;;1.20;;
77984;SDS011;67177;47.240;-1.546;2023-08-24T14:27:43;3.60;;;1.30;;
77984;SDS011;67177;47.240;-1.546;2023-08-24T14:30:09;3.30;;;1.13;;
77984;SDS011;67177;47.240;-1.546;2023-08-24T14:32:36;3.40;;;1.10;;
77984;SDS011;67177;47.240;-1.546;2023-08-24T14:35:01;3.50;;;1.38;;
77984;SDS011;67177;47.240;-1.546;2023-08-24T14:37:29;3.58;;;1.27;;
77984;SDS011;67177;47.240;-1.546;2023-08-24T14:39:55;4.03;;;1.40;;
77984;SDS011;67177;47.240;-1.546;2023-08-24T14:42:20;3.80;;;1.50;;
77984;SDS011;67177;47.240;-1.546;2023-08-24T14:44:46;3.43;;;1.33;;